Wednesday, August 31, 2016
23:30 UTC
  |  Log In   |  Register Free
Airport Search:

Norwood Memorial Airport
(KOWD)

FAA data valid effective Jul 21 2016 - Sep 15 2016 (unless otherwise noted).

 
 
 
 
 
 
 
 
 
 
 
 
 
 
Current Aviation Weather for KOWD

Weather Summary


The most recent METAR observation for OWD was updated at: 12:53 UTC
METAR for OWD is not available. Closest METAR is for
METAR

METAR KOWD 312253Z 23006KT 10SM BKN110 27/18 A2986 RMK AO2 SLP110 T02670183

METAR KOWD 312153Z 25008KT 10SM CLR 27/18 A2986 RMK AO2 SLP112 T02670183

METAR KOWD 312053Z 24011KT 10SM CLR 27/18 A2986 RMK AO2 SLP111 T02720183 56016

METAR KBED 312256Z 21007KT 10SM BKN100 26/18 A2985 RMK AO2 SLP117 T02560178

METAR KBOS 312254Z 23014KT 10SM FEW035 SCT100 BKN180 27/19 A2986 RMK AO2 SLP111 T02670189

METAR KBVY 312253Z 23008KT 10SM OVC100 26/19 A2985 RMK AO2 SLP102 T02610189

TAF for OWD is not available.
TAF

KBOS - TAF KBOS 312320Z 0100/0206 23012KT P6SM FEW040 BKN150

KBOS - FM010400 22009KT P6SM VCSH BKN060

KBOS - FM010900 23005KT 6SM -SHRA OVC050

KBOS - FM011400 VRB03KT P6SM VCSH OVC060

KBOS - FM012200 07005KT P6SM BKN040

KBOS - FM020200 35005KT P6SM SCT150 =

KBED - TAF KBED 312320Z 0100/0124 23007KT P6SM BKN100

KBED - FM010400 22004KT P6SM VCSH OVC050

KBED - FM010900 00000KT P6SM -SHRA OVC035

KBED - FM011300 VRB03KT P6SM VCSH OVC060

KBED - FM011600 30004KT P6SM BKN050 =

KPVD - TAF KPVD 312320Z 0100/0124 21007KT P6SM BKN120

KPVD - FM010600 22004KT P6SM VCSH OVC080

KPVD - FM011100 25004KT 3SM BR VCSH OVC070

KPVD - FM011300 26004KT P6SM VCSH OVC070 =

KORH - TAF KORH 312320Z 0100/0124 24008KT P6SM BKN100

KORH - FM010300 23006KT P6SM VCSH BKN050

KORH - FM010900 27005KT P6SM VCSH OVC030

KORH - FM011300 VRB03KT P6SM OVC060

KORH - FM011900 31005KT P6SM BKN040 =

GlobalAir.com is loading additional information.
 Current Weather at OWD
80.0 F° (26.7 C°)

West winds at 9.2 mph
Pressure:
29.86 in
Humidity:
60%
Wind:
West at 9.2 mph
Dew Point:
64.9 F° (18.3 C°)
Visibility:
10.00 mi
OWD NOAA Radar




Find All Airport Services Find A Hotel Find A Rental Car Find A Golf Course Find A Restaurant $100 Hamburger



Airport Weather Forecast for KOWD

Translated METAR for KOWD (2253 UTC)
METAR:
KOWD 312253Z Norwood Memorial, Norwood, MA (KOWD). Aug 31, 2253Z. Wind from 230° at 6 knots, 10 statute miles visibility, Ceiling is Broken at 11,000 feet, Temperature 27°C, Dewpoint 18°C, Altimeter is 29.86. Remarks: automated station with precipitation discriminator sea level pressure 1011.0 hectopascals hourly temp 26.7°C dewpoint 18.3°C
Conditions at:
KOWD (Norwood Memorial, MA) observed 2253 UTC 31 August 2016
Temperature:
80.0 F° (26.7 C°)
Dewpoint:
not reported - refer to area weather report
Pressure:
29.86 Hg
Winds:
not reported
Visibility:
10.00
Ceiling:
at least 12,000 feet AGL
Clouds:
not reported - refer to area weather report
Remarks:

Translated TAF for TAF for OWD is not available. Refer to local area forecast.
FBO's on the Field
FBO Company Facility Photos Services Transportation Aviation Fuel Prices: Prices include tax
Catering Weather Repair Courtesy Rental Type 100LL JetA JetA+ MOGAS 8087
 
FlightLevel Aviation - OWD

Currently rated 5 by 3 people
FS:Shell
Last Updated: Aug-30
Login to update fuel prices
SS:
Contact FlightLevel Aviation - OWDMore FBO Information
 
Add another FBO Facility Photos Catering Weather Repair Courtesy Rental Type 100LL JetA JetA+ MOGAS 8087
Services Transportation Aviation Fuel Prices: Prices include tax


model-print
model-print
model-print
model-print